Home PIREPS Pireps

Flight SLR8122

  • Submitted By: Vincent Fourni
  • Departure Airport: Palma de Mallorca / Son San Juan (LEPA)
  • Arrival Airport: Bruxelles National (EBBR)
  • Aircraft: B737-800 (OO-SLR)
  • Flight Time: 02.25
  • Date Submitted: 20/11/2018
  • Status: Accepted
Flight Details
Gross Revenue:
(138 load / € 0.00 per unit
€ 0.00
Fuel Cost:
(5880 fuel used @ 5.1 / unit)
€ 29,988.00

Additional Log Information:

View Log

Aircraft Used in flight is PMDG 737-800NGX Brussels Airlines Winglets
08:44 Brakes are On
08:52 Brakes are Released
08:54 Brakes are On
08:57 Brakes are Released
09:04 You Took off @ 171 Knots and Flaps at Position 3
Departure Weather
LEPA 200730Z VRB02KT 9999 FEW023 SCT055 09/09 Q1003 NOSIGrn
09:04 Landing Gear Up @ 180 Knots and 230 Feet
10:50 Below 10000 feet you are not allowed to go over 250 knots
10:52 You exceeded maximum bank angle
10:55 Below Fl100 you need to turn on the landing lights
10:55 Below FL100 you need to turn on the landing lights
10:55 Landing Gear Down @ 191 Knots and 2020 Feet
10:58 You Landed @ 138 Knots and with -350 Vertical Speed
Arrival Weather
EBBR 200920Z 07011KT 9999 SCT035 BKN038 03/M02 Q1007 NOSIGrn
10:58 Paused
11:01 Unpaused
11:01 Brakes are On
11:13 Brussels Bel-Track1.0.1.2

Route Map

Corporate About Us Our Team Vacancies Information Fleet Route Network Rules and Regulations Operations Flight Schedules Event Center Tours Partners IVAO Vatsim Acars dev FSCB

fb Users Online No pilots online!
0 Pilot(s) and 131 Guest(s) Online
CMS by phpVMS - Design by Crazycreatives.com - Copyright © 2020 - Brussels Airlines Virtual